createdAt,value
2017-09-09T00:00:45.959Z,10.43
2017-09-09T00:03:12.281Z,10.63
2017-09-09T00:05:40.296Z,10.40
2017-09-09T00:08:06.576Z,10.20
2017-09-09T00:10:33.574Z,12.27
2017-09-09T00:12:59.828Z,10.30
2017-09-09T00:15:26.082Z,10.20
2017-09-09T00:17:53.114Z,10.40
2017-09-09T00:20:20.141Z,11.70
2017-09-09T00:22:46.443Z,11.37
2017-09-09T00:25:12.705Z,9.17
2017-09-09T00:27:38.999Z,13.03
2017-09-09T00:30:05.260Z,9.90
2017-09-09T00:32:31.518Z,9.50
2017-09-09T00:34:58.642Z,9.40
2017-09-09T00:37:24.924Z,11.43
2017-09-09T00:39:51.197Z,8.23
2017-09-09T00:42:17.505Z,8.70
2017-09-09T00:44:43.795Z,8.57
2017-09-09T00:47:10.069Z,8.83
2017-09-09T00:49:36.357Z,9.20
2017-09-09T00:52:02.639Z,8.67
2017-09-09T00:54:29.750Z,8.17
2017-09-09T00:56:56.060Z,7.90
2017-09-09T00:59:22.361Z,10.07
2017-09-09T01:01:49.378Z,8.27
2017-09-09T01:04:15.682Z,10.07
2017-09-09T01:06:41.987Z,9.73
2017-09-09T01:09:08.280Z,9.30
2017-09-09T01:11:34.564Z,9.50
2017-09-09T01:14:00.842Z,9.97
2017-09-09T01:16:27.123Z,9.63
2017-09-09T01:18:53.396Z,11.40
2017-09-09T01:21:19.725Z,10.00
2017-09-09T01:23:47.490Z,8.60
2017-09-09T01:26:13.854Z,9.20
2017-09-09T01:28:40.148Z,13.00
2017-09-09T01:31:06.465Z,8.87
2017-09-09T01:33:32.733Z,9.60
2017-09-09T01:35:58.999Z,9.17
2017-09-09T01:38:25.283Z,10.23
2017-09-09T01:40:52.301Z,9.13
2017-09-09T01:43:18.579Z,8.40
2017-09-09T01:45:45.590Z,9.77
2017-09-09T01:48:11.874Z,8.40
2017-09-09T01:50:38.149Z,10.00
2017-09-09T01:53:04.405Z,11.27
2017-09-09T01:55:31.429Z,11.10
2017-09-09T01:57:58.484Z,8.20
2017-09-09T02:00:24.743Z,7.43
2017-09-09T02:02:51.021Z,8.10
2017-09-09T02:05:17.278Z,7.77
2017-09-09T02:07:44.291Z,8.63
2017-09-09T02:10:10.570Z,8.37
2017-09-09T02:12:37.573Z,8.00
2017-09-09T02:15:03.846Z,8.00
2017-09-09T02:17:30.859Z,7.73
2017-09-09T02:19:57.121Z,7.90
2017-09-09T02:22:24.145Z,9.50
2017-09-09T02:24:50.392Z,8.50
2017-09-09T02:27:17.434Z,7.50
2017-09-09T02:29:44.465Z,9.90
2017-09-09T02:32:10.720Z,8.13
2017-09-09T02:34:37.721Z,7.87
2017-09-09T02:37:04.029Z,9.70
2017-09-09T02:39:30.300Z,8.10
2017-09-09T02:41:56.555Z,9.23
2017-09-09T02:44:23.602Z,7.03
2017-09-09T02:46:49.856Z,8.57
2017-09-09T02:49:16.117Z,7.03
2017-09-09T02:51:42.378Z,7.17
2017-09-09T02:54:09.397Z,6.00
2017-09-09T02:56:35.683Z,7.27
2017-09-09T02:59:08.845Z,5.97
2017-09-09T03:01:35.856Z,7.17
2017-09-09T03:04:02.220Z,6.40
2017-09-09T03:06:30.085Z,6.93
2017-09-09T03:08:57.118Z,6.53
2017-09-09T03:11:23.400Z,5.70
2017-09-09T03:13:49.662Z,6.30
2017-09-09T03:16:15.941Z,6.67
2017-09-09T03:18:42.205Z,8.50
2017-09-09T03:21:08.477Z,8.30
2017-09-09T03:23:35.476Z,6.10
2017-09-09T03:26:01.775Z,8.83
2017-09-09T03:28:28.042Z,6.80
2017-09-09T03:30:54.324Z,9.50
2017-09-09T03:33:21.317Z,6.40
2017-09-09T03:35:47.575Z,11.03
2017-09-09T03:38:14.578Z,6.70
2017-09-09T03:40:40.860Z,6.80
2017-09-09T03:43:07.868Z,7.03
2017-09-09T03:45:34.943Z,6.87
2017-09-09T03:48:01.960Z,6.77
2017-09-09T03:50:28.232Z,8.20
2017-09-09T03:52:55.225Z,9.90
2017-09-09T03:55:21.480Z,6.07
2017-09-09T03:57:47.752Z,7.60
2017-09-09T04:00:14.796Z,9.70
2017-09-09T04:02:41.129Z,6.17
2017-09-09T04:05:08.125Z,7.50
2017-09-09T04:07:34.380Z,6.43
2017-09-09T04:10:00.631Z,7.40
2017-09-09T04:12:26.922Z,7.50
2017-09-09T04:14:53.176Z,7.37
2017-09-09T04:17:20.179Z,8.00
2017-09-09T04:19:46.454Z,6.87
2017-09-09T04:22:13.466Z,6.53
2017-09-09T04:24:39.724Z,6.53
2017-09-09T04:27:06.002Z,7.40
2017-09-09T04:29:32.265Z,6.90
2017-09-09T04:31:58.544Z,8.90
2017-09-09T04:34:24.791Z,8.77
2017-09-09T04:36:51.068Z,7.47
2017-09-09T04:39:18.089Z,7.63
2017-09-09T04:41:44.341Z,7.80
2017-09-09T04:44:11.353Z,8.40
2017-09-09T04:46:37.607Z,7.43
2017-09-09T04:49:03.889Z,8.37
2017-09-09T04:51:30.153Z,7.47
2017-09-09T04:53:56.449Z,6.43
2017-09-09T04:56:22.701Z,6.33
2017-09-09T04:58:48.995Z,8.50
2017-09-09T05:01:15.289Z,7.27
2017-09-09T05:03:42.328Z,6.97
2017-09-09T05:06:09.353Z,8.17
2017-09-09T05:08:35.653Z,8.93
2017-09-09T05:11:01.951Z,8.33
2017-09-09T05:13:28.242Z,9.73
2017-09-09T05:15:54.520Z,8.13
2017-09-09T05:18:21.525Z,8.17
2017-09-09T05:20:48.572Z,9.80
2017-09-09T05:23:14.859Z,8.90
2017-09-09T05:25:41.132Z,9.63
2017-09-09T05:28:07.384Z,10.10
2017-09-09T05:30:34.453Z,8.77
2017-09-09T05:33:00.733Z,10.50
2017-09-09T05:35:27.073Z,8.30
2017-09-09T05:37:54.108Z,7.77
2017-09-09T05:40:20.420Z,8.27
2017-09-09T05:42:46.721Z,7.87
2017-09-09T05:45:13.010Z,10.07
2017-09-09T05:47:40.016Z,8.77
2017-09-09T05:50:06.311Z,9.93
2017-09-09T05:52:32.673Z,9.60
2017-09-09T05:54:58.985Z,9.50
2017-09-09T05:57:26.525Z,10.07
2017-09-09T05:59:53.555Z,9.63
2017-09-09T06:02:20.645Z,8.70
2017-09-09T06:04:46.925Z,8.27
2017-09-09T06:07:13.194Z,8.10
2017-09-09T06:09:40.188Z,7.90
2017-09-09T06:12:06.508Z,8.90
2017-09-09T06:14:32.993Z,8.57
2017-09-09T06:16:59.280Z,8.93
2017-09-09T06:19:25.559Z,10.10
2017-09-09T06:21:51.877Z,9.87
2017-09-09T06:24:18.889Z,8.90
2017-09-09T06:26:45.189Z,8.20
2017-09-09T06:29:12.059Z,9.13
2017-09-09T06:31:39.238Z,9.43
2017-09-09T06:34:06.284Z,10.73
2017-09-09T06:36:33.330Z,8.43
2017-09-09T06:39:00.490Z,13.10
2017-09-09T06:41:26.813Z,9.03
2017-09-09T06:43:53.153Z,9.70
2017-09-09T06:46:19.426Z,9.53
2017-09-09T06:48:45.975Z,9.90
2017-09-09T06:51:12.324Z,9.77
2017-09-09T06:53:39.365Z,9.63
2017-09-09T06:56:05.684Z,10.73
2017-09-09T06:58:32.009Z,8.57
2017-09-09T07:00:59.021Z,8.77
2017-09-09T07:03:25.313Z,8.30
2017-09-09T07:05:52.397Z,9.33
2017-09-09T07:08:18.715Z,10.10
2017-09-09T07:10:45.005Z,11.17
2017-09-09T07:13:11.268Z,9.60
2017-09-09T07:15:37.564Z,9.70
2017-09-09T07:18:04.633Z,10.50
2017-09-09T07:20:31.656Z,10.00
2017-09-09T07:22:57.927Z,9.47
2017-09-09T07:25:24.959Z,8.83
2017-09-09T07:27:52.009Z,9.70
2017-09-09T07:30:18.283Z,9.13
2017-09-09T07:32:44.563Z,8.07
2017-09-09T07:35:11.592Z,9.40
2017-09-09T07:37:37.867Z,9.73
2017-09-09T07:40:04.183Z,9.77
2017-09-09T07:42:31.207Z,9.63
2017-09-09T07:44:58.264Z,8.27
2017-09-09T07:47:25.273Z,9.90
2017-09-09T07:49:51.573Z,10.37
2017-09-09T07:52:17.849Z,12.00
2017-09-09T07:54:44.133Z,8.77
2017-09-09T07:57:10.437Z,10.60
2017-09-09T07:59:37.454Z,9.20
2017-09-09T08:02:03.774Z,8.37
2017-09-09T08:04:30.133Z,9.17
2017-09-09T08:06:57.184Z,9.10
2017-09-09T08:09:24.206Z,7.97
2017-09-09T08:11:50.520Z,7.83
2017-09-09T08:14:16.811Z,8.83
2017-09-09T08:16:43.108Z,9.73
2017-09-09T08:19:10.326Z,9.30
2017-09-09T08:21:36.619Z,8.63
2017-09-09T08:24:02.915Z,9.73
2017-09-09T08:26:30.004Z,7.90
2017-09-09T08:28:56.306Z,10.03
2017-09-09T08:31:23.363Z,9.93
2017-09-09T08:33:49.640Z,8.70
2017-09-09T08:36:17.352Z,9.80
2017-09-09T08:38:44.373Z,8.13
2017-09-09T08:41:10.650Z,7.60
2017-09-09T08:43:36.936Z,9.17
2017-09-09T08:46:05.003Z,8.93
2017-09-09T08:48:31.288Z,9.27
2017-09-09T08:50:57.587Z,9.60
2017-09-09T08:53:24.728Z,9.43
2017-09-09T08:55:51.028Z,9.20
2017-09-09T08:58:18.182Z,8.93
2017-09-09T09:00:44.467Z,10.03
2017-09-09T09:03:10.767Z,10.13
2017-09-09T09:05:37.061Z,9.10
2017-09-09T09:08:03.372Z,8.40
2017-09-09T09:10:29.692Z,9.30
2017-09-09T09:12:55.978Z,9.43
2017-09-09T09:15:23.068Z,10.70
2017-09-09T09:17:49.384Z,8.97
2017-09-09T09:20:15.693Z,10.50
2017-09-09T09:22:42.734Z,10.70
2017-09-09T09:25:09.077Z,10.20
2017-09-09T09:27:35.384Z,9.93
2017-09-09T09:30:01.710Z,9.93
2017-09-09T09:32:28.005Z,8.90
2017-09-09T09:34:54.293Z,9.40
2017-09-09T09:37:21.321Z,9.43
2017-09-09T09:39:47.613Z,10.23
2017-09-09T09:42:13.928Z,9.37
2017-09-09T09:44:40.209Z,10.27
2017-09-09T09:47:07.264Z,9.40
2017-09-09T09:49:33.594Z,9.50
2017-09-09T09:51:59.904Z,11.07
2017-09-09T09:54:26.203Z,9.40
2017-09-09T09:56:52.579Z,10.07
2017-09-09T09:59:18.905Z,9.70
2017-09-09T10:01:45.172Z,9.50
2017-09-09T10:04:11.479Z,8.90
2017-09-09T10:06:37.771Z,9.30
2017-09-09T10:09:04.073Z,9.10
2017-09-09T10:11:30.373Z,8.60
2017-09-09T10:13:57.895Z,10.43
2017-09-09T10:16:24.179Z,9.43
2017-09-09T10:18:50.477Z,8.07
2017-09-09T10:21:17.544Z,8.40
2017-09-09T10:23:44.601Z,8.87
2017-09-09T10:26:10.917Z,8.70
2017-09-09T10:28:37.241Z,8.23
2017-09-09T10:31:03.562Z,8.27
2017-09-09T10:33:29.862Z,7.93
2017-09-09T10:35:56.153Z,7.70
2017-09-09T10:38:22.434Z,8.57
2017-09-09T10:40:48.774Z,10.63
2017-09-09T10:43:15.082Z,7.63
2017-09-09T10:45:41.414Z,7.07
2017-09-09T10:48:07.742Z,6.50
2017-09-09T10:50:34.093Z,7.60
2017-09-09T10:53:00.432Z,8.10
2017-09-09T10:55:26.769Z,6.60
2017-09-09T10:57:53.813Z,6.80
2017-09-09T11:00:20.189Z,6.80
2017-09-09T11:02:46.516Z,6.90
2017-09-09T11:05:12.807Z,7.97
2017-09-09T11:07:39.873Z,7.03
2017-09-09T11:10:06.190Z,6.20
2017-09-09T11:12:33.270Z,6.70
2017-09-09T11:14:59.601Z,6.67
2017-09-09T11:17:25.989Z,6.60
2017-09-09T11:19:53.024Z,7.53
2017-09-09T11:22:19.381Z,7.07
2017-09-09T11:24:45.749Z,7.63
2017-09-09T11:27:12.076Z,6.87
2017-09-09T11:29:38.374Z,6.23
2017-09-09T11:32:04.659Z,8.10
2017-09-09T11:34:31.725Z,7.20
2017-09-09T11:36:58.793Z,6.57
2017-09-09T11:39:25.853Z,7.73
2017-09-09T11:41:52.913Z,7.27
2017-09-09T11:44:19.194Z,7.53
2017-09-09T11:46:46.240Z,6.63
2017-09-09T11:49:12.561Z,7.37
2017-09-09T11:51:39.833Z,7.40
2017-09-09T11:54:06.139Z,9.20
2017-09-09T11:56:32.413Z,7.13
2017-09-09T11:58:58.749Z,5.27
2017-09-09T12:01:25.045Z,6.10
2017-09-09T12:03:52.079Z,5.10
2017-09-09T12:06:18.350Z,4.20
2017-09-09T12:08:44.633Z,4.60
2017-09-09T12:11:10.936Z,3.80
2017-09-09T12:13:37.224Z,3.67
2017-09-09T12:16:04.266Z,3.67
2017-09-09T12:18:31.298Z,3.47
2017-09-09T12:20:57.791Z,2.90
2017-09-09T12:23:24.075Z,3.83
2017-09-09T12:25:50.427Z,2.53
2017-09-09T12:28:17.438Z,2.20
2017-09-09T12:30:43.747Z,2.30
2017-09-09T12:33:10.072Z,2.93
2017-09-09T12:35:36.406Z,2.13
2017-09-09T12:38:02.721Z,3.73
2017-09-09T12:40:29.043Z,1.33
2017-09-09T12:42:55.344Z,2.77
2017-09-09T12:45:21.660Z,1.30
2017-09-09T12:47:48.689Z,1.30
2017-09-09T12:50:14.999Z,1.10
2017-09-09T12:52:41.296Z,1.27
2017-09-09T12:55:08.341Z,1.17
2017-09-09T12:57:35.360Z,0.80
2017-09-09T13:00:02.440Z,0.97
2017-09-09T13:02:28.719Z,0.73
2017-09-09T13:04:55.061Z,3.00
2017-09-09T13:07:21.375Z,0.90
2017-09-09T13:09:47.728Z,1.07
2017-09-09T13:12:14.055Z,1.40
2017-09-09T13:14:41.302Z,0.80
2017-09-09T13:17:08.347Z,0.80
2017-09-09T13:19:34.625Z,1.10
2017-09-09T13:22:00.946Z,1.00
2017-09-09T13:24:27.993Z,1.30
2017-09-09T13:26:54.353Z,0.93
2017-09-09T13:29:20.653Z,1.23
2017-09-09T13:31:46.940Z,1.60
2017-09-09T13:34:13.245Z,1.20
2017-09-09T13:36:39.532Z,1.07
2017-09-09T13:39:05.840Z,1.20
2017-09-09T13:41:32.171Z,1.10
2017-09-09T13:44:05.630Z,1.30
2017-09-09T13:46:31.972Z,1.40
2017-09-09T13:48:58.408Z,1.23
2017-09-09T13:51:24.701Z,1.20
2017-09-09T13:53:51.036Z,1.67
2017-09-09T13:56:17.315Z,0.90
2017-09-09T13:58:43.626Z,1.33
2017-09-09T14:01:09.913Z,1.27
2017-09-09T14:03:36.244Z,2.50
2017-09-09T14:06:02.529Z,1.40
2017-09-09T14:08:28.823Z,1.97
2017-09-09T14:10:55.130Z,1.30
2017-09-09T14:13:21.404Z,1.30
2017-09-09T14:15:47.675Z,1.70
2017-09-09T14:18:14.270Z,1.40
2017-09-09T14:20:41.343Z,1.20
2017-09-09T14:23:08.392Z,1.53
2017-09-09T14:25:35.428Z,2.40
2017-09-09T14:28:02.528Z,1.47
2017-09-09T14:30:28.937Z,1.73
2017-09-09T14:32:55.247Z,2.33
2017-09-09T14:35:22.274Z,1.70
2017-09-09T14:37:48.601Z,2.17
2017-09-09T14:40:14.892Z,1.73
2017-09-09T14:42:41.180Z,2.17
2017-09-09T14:45:07.501Z,1.83
2017-09-09T14:47:33.781Z,2.17
2017-09-09T14:50:00.084Z,1.70
2017-09-09T14:52:26.366Z,1.70
2017-09-09T14:54:52.698Z,1.60
2017-09-09T14:57:18.984Z,1.97
2017-09-09T14:59:46.007Z,1.97
2017-09-09T15:02:13.016Z,1.93
2017-09-09T15:04:39.290Z,1.73
2017-09-09T15:07:05.572Z,2.23
2017-09-09T15:09:31.873Z,1.80
2017-09-09T15:11:58.149Z,1.87
2017-09-09T15:14:24.460Z,1.63
2017-09-09T15:16:50.783Z,3.97
2017-09-09T15:19:17.897Z,2.40
2017-09-09T15:21:44.234Z,2.60
2017-09-09T15:24:10.570Z,1.70
2017-09-09T15:26:36.899Z,2.40
2017-09-09T15:29:03.294Z,2.07
2017-09-09T15:31:30.344Z,2.20
2017-09-09T15:33:56.688Z,2.17
2017-09-09T15:36:23.784Z,2.10
2017-09-09T15:38:51.025Z,2.63
2017-09-09T15:41:17.317Z,2.23
2017-09-09T15:43:43.639Z,2.50
2017-09-09T15:46:10.719Z,1.83
2017-09-09T15:48:37.011Z,2.43
2017-09-09T15:51:03.291Z,2.10
2017-09-09T15:53:29.573Z,2.27
2017-09-09T15:55:56.634Z,1.73
2017-09-09T15:58:23.713Z,1.70
2017-09-09T16:00:51.537Z,1.90
2017-09-09T16:03:18.602Z,2.10
2017-09-09T16:05:44.930Z,2.23
2017-09-09T16:08:11.959Z,1.97
2017-09-09T16:10:38.995Z,2.07
2017-09-09T16:13:05.299Z,2.83
2017-09-09T16:15:31.587Z,2.30
2017-09-09T16:17:59.569Z,2.30
2017-09-09T16:20:26.993Z,2.80
2017-09-09T16:22:54.111Z,4.57
2017-09-09T16:25:20.407Z,3.00
2017-09-09T16:27:46.769Z,3.00
2017-09-09T16:30:13.099Z,3.23
2017-09-09T16:32:39.444Z,3.30
2017-09-09T16:35:06.509Z,3.30
2017-09-09T16:37:33.760Z,3.00
2017-09-09T16:40:00.037Z,3.10
2017-09-09T16:42:26.436Z,3.00
2017-09-09T16:44:52.799Z,3.13
2017-09-09T16:47:19.197Z,3.60
2017-09-09T16:49:46.227Z,2.73
2017-09-09T16:52:13.107Z,3.40
2017-09-09T16:54:39.421Z,2.90
2017-09-09T16:57:05.703Z,3.20
2017-09-09T16:59:32.047Z,4.00
2017-09-09T17:01:58.449Z,2.83
2017-09-09T17:04:24.749Z,2.13
2017-09-09T17:06:51.056Z,2.03
2017-09-09T17:09:17.335Z,3.07
2017-09-09T17:11:43.622Z,2.00
2017-09-09T17:14:09.942Z,1.50
2017-09-09T17:16:36.243Z,1.87
2017-09-09T17:19:02.589Z,1.70
2017-09-09T17:21:29.800Z,2.00
2017-09-09T17:23:56.084Z,1.77
2017-09-09T17:26:22.392Z,1.83
2017-09-09T17:28:48.675Z,1.90
2017-09-09T17:31:15.780Z,1.93
2017-09-09T17:33:42.112Z,2.10
2017-09-09T17:36:08.397Z,2.43
2017-09-09T17:38:34.673Z,3.07
2017-09-09T17:41:00.964Z,2.53
2017-09-09T17:43:27.297Z,2.87
2017-09-09T17:45:53.575Z,2.00
2017-09-09T17:48:27.995Z,2.20
2017-09-09T17:50:55.021Z,2.23
2017-09-09T17:53:21.313Z,2.97
2017-09-09T17:55:47.595Z,2.73
2017-09-09T17:58:13.911Z,3.00
2017-09-09T18:00:40.223Z,2.67
2017-09-09T18:03:06.562Z,2.50
2017-09-09T18:05:33.089Z,2.77
2017-09-09T18:07:59.361Z,3.83
2017-09-09T18:10:25.712Z,2.50
2017-09-09T18:12:52.143Z,2.47
2017-09-09T18:15:18.472Z,2.80
2017-09-09T18:17:44.769Z,3.00
2017-09-09T18:20:11.044Z,2.30
2017-09-09T18:22:37.331Z,2.63
2017-09-09T18:25:03.697Z,2.57
2017-09-09T18:27:29.990Z,2.80
2017-09-09T18:29:56.241Z,2.83
2017-09-09T18:32:23.276Z,3.00
2017-09-09T18:34:50.304Z,2.90
2017-09-09T18:37:16.607Z,3.30
2017-09-09T18:39:42.872Z,3.00
2017-09-09T18:42:09.172Z,2.60
2017-09-09T18:44:36.478Z,2.20
2017-09-09T18:47:03.484Z,2.47
2017-09-09T18:49:29.779Z,2.77
2017-09-09T18:51:56.050Z,3.30
2017-09-09T18:54:22.333Z,2.80
2017-09-09T18:56:48.597Z,11.43
2017-09-09T18:59:14.906Z,5.57
2017-09-09T19:01:41.184Z,3.03
2017-09-09T19:04:08.204Z,2.63
2017-09-09T19:06:34.495Z,3.67
2017-09-09T19:09:00.743Z,3.63
2017-09-09T19:11:27.010Z,2.73
2017-09-09T19:13:54.874Z,3.10
2017-09-09T19:16:21.153Z,2.93
2017-09-09T19:18:47.408Z,3.40
2017-09-09T19:21:13.684Z,2.80
2017-09-09T19:23:40.719Z,3.03
2017-09-09T19:26:07.749Z,3.40
2017-09-09T19:28:34.032Z,3.23
2017-09-09T19:31:01.332Z,4.20
2017-09-09T19:33:27.631Z,6.70
2017-09-09T19:35:53.922Z,3.40
2017-09-09T19:38:20.203Z,4.80
2017-09-09T19:40:46.481Z,3.33
2017-09-09T19:43:12.780Z,2.90
2017-09-09T19:45:39.067Z,3.33
2017-09-09T19:48:05.328Z,2.97
2017-09-09T19:50:31.613Z,3.23
2017-09-09T19:52:57.891Z,4.10
2017-09-09T19:55:24.169Z,3.50
2017-09-09T19:57:50.436Z,2.80
2017-09-09T20:00:16.692Z,3.40
2017-09-09T20:02:42.989Z,3.17
2017-09-09T20:05:09.244Z,3.37
2017-09-09T20:07:36.273Z,3.03
2017-09-09T20:10:02.536Z,3.33
2017-09-09T20:12:29.553Z,4.20
2017-09-09T20:14:55.827Z,2.80
2017-09-09T20:17:22.122Z,3.57
2017-09-09T20:19:48.372Z,3.60
2017-09-09T20:22:15.395Z,12.03
2017-09-09T20:24:41.675Z,2.60
2017-09-09T20:27:07.965Z,2.40
2017-09-09T20:29:34.994Z,2.67
2017-09-09T20:32:01.339Z,2.73
2017-09-09T20:34:28.363Z,2.50
2017-09-09T20:36:54.669Z,3.00
2017-09-09T20:39:21.869Z,2.80
2017-09-09T20:41:48.212Z,3.13
2017-09-09T20:44:15.228Z,3.30
2017-09-09T20:46:41.498Z,3.00
2017-09-09T20:49:07.799Z,3.20
2017-09-09T20:51:34.089Z,2.80
2017-09-09T20:54:00.371Z,2.90
2017-09-09T20:56:27.402Z,4.50
2017-09-09T20:58:53.688Z,2.83
2017-09-09T21:01:19.963Z,3.10
2017-09-09T21:03:46.253Z,2.80
2017-09-09T21:06:12.523Z,2.70
2017-09-09T21:08:38.800Z,3.20
2017-09-09T21:11:05.068Z,4.53
2017-09-09T21:13:31.353Z,3.47
2017-09-09T21:15:57.636Z,3.93
2017-09-09T21:18:30.879Z,2.83
2017-09-09T21:20:57.127Z,3.30
2017-09-09T21:23:23.412Z,2.60
2017-09-09T21:25:50.448Z,2.67
2017-09-09T21:28:17.475Z,2.47
2017-09-09T21:30:43.749Z,3.70
2017-09-09T21:33:10.016Z,3.13
2017-09-09T21:35:36.301Z,2.80
2017-09-09T21:38:03.311Z,2.67
2017-09-09T21:40:29.597Z,2.93
2017-09-09T21:42:55.857Z,2.80
2017-09-09T21:45:22.125Z,3.57
2017-09-09T21:47:49.121Z,2.90
2017-09-09T21:50:15.397Z,2.70
2017-09-09T21:52:42.402Z,2.43
2017-09-09T21:55:08.666Z,4.63
2017-09-09T21:57:35.680Z,4.90
2017-09-09T22:00:01.976Z,2.30
2017-09-09T22:02:28.245Z,2.20
2017-09-09T22:04:54.546Z,2.33
2017-09-09T22:07:20.803Z,3.70
2017-09-09T22:09:47.064Z,23.67
2017-09-09T22:12:14.074Z,5.17
2017-09-09T22:14:40.343Z,3.57
2017-09-09T22:17:07.345Z,3.00
2017-09-09T22:19:33.603Z,3.23
2017-09-09T22:22:01.169Z,3.17
2017-09-09T22:24:28.163Z,3.40
2017-09-09T22:26:54.438Z,3.10
2017-09-09T22:29:20.731Z,3.40
2017-09-09T22:31:46.998Z,2.80
2017-09-09T22:34:14.014Z,3.03
2017-09-09T22:36:40.299Z,3.50
2017-09-09T22:39:06.560Z,3.57
2017-09-09T22:41:32.832Z,3.10
2017-09-09T22:43:59.100Z,3.10
2017-09-09T22:46:25.340Z,3.50
2017-09-09T22:48:51.604Z,3.20
2017-09-09T22:51:17.877Z,3.27
2017-09-09T22:53:44.185Z,3.17
2017-09-09T22:56:11.184Z,2.93
2017-09-09T22:58:37.469Z,4.10
2017-09-09T23:01:03.859Z,2.33
2017-09-09T23:03:30.216Z,2.70
2017-09-09T23:05:57.223Z,5.20
2017-09-09T23:08:23.509Z,2.60
2017-09-09T23:10:49.780Z,3.00
2017-09-09T23:13:16.065Z,3.20
2017-09-09T23:15:42.323Z,2.43
2017-09-09T23:18:08.579Z,4.53
2017-09-09T23:20:34.856Z,6.03
2017-09-09T23:23:01.857Z,3.30
2017-09-09T23:25:28.130Z,3.07
2017-09-09T23:27:54.413Z,3.10
2017-09-09T23:30:20.669Z,4.03
2017-09-09T23:32:47.676Z,3.77
2017-09-09T23:35:13.972Z,4.73
2017-09-09T23:37:40.252Z,4.23
2017-09-09T23:40:06.594Z,3.70
2017-09-09T23:42:33.621Z,4.20
2017-09-09T23:44:59.907Z,3.53
2017-09-09T23:47:26.185Z,4.03
2017-09-09T23:49:52.448Z,4.53
2017-09-09T23:52:18.728Z,4.70
2017-09-09T23:54:44.997Z,5.50
2017-09-09T23:57:11.262Z,5.40
2017-09-09T23:59:37.521Z,5.43
